createdAt,value
2022-09-05T00:02:26.404Z,76.45
2022-09-05T00:04:52.743Z,76.07
2022-09-05T00:07:47.693Z,76.06
2022-09-05T00:09:45.464Z,76.02
2022-09-05T00:12:11.836Z,76.65
2022-09-05T00:15:15.956Z,76.09
2022-09-05T00:17:04.744Z,75.47
2022-09-05T00:24:17.673Z,74.71
2022-09-05T00:24:32.507Z,74.50
2022-09-05T00:24:45.675Z,74.31
2022-09-05T00:26:50.853Z,74.04
2022-09-05T00:29:16.602Z,73.91
2022-09-05T00:31:53.910Z,73.13
2022-09-05T00:34:09.550Z,73.31
2022-09-05T00:36:35.932Z,72.68
2022-09-05T00:39:02.403Z,73.02
2022-09-05T00:41:28.762Z,72.89
2022-09-05T00:43:55.169Z,72.86
2022-09-05T00:46:21.596Z,72.88
2022-09-05T00:48:47.916Z,72.31
2022-09-05T00:51:14.312Z,72.76
2022-09-05T00:53:40.701Z,72.53
2022-09-05T00:56:07.078Z,72.74
2022-09-05T00:58:34.021Z,72.91
2022-09-05T01:00:59.919Z,72.71
2022-09-05T01:03:26.492Z,72.92
2022-09-05T01:05:52.756Z,72.91
2022-09-05T01:08:19.122Z,72.85
2022-09-05T01:10:45.481Z,72.46
2022-09-05T01:13:11.956Z,72.26
2022-09-05T01:15:38.356Z,72.49
2022-09-05T01:18:04.713Z,72.94
2022-09-05T01:20:31.567Z,73.11
2022-09-05T01:22:57.458Z,72.44
2022-09-05T01:25:23.825Z,72.00
2022-09-05T01:29:13.055Z,71.80
2022-09-05T01:30:16.633Z,71.63
2022-09-05T01:32:42.998Z,71.20
2022-09-05T01:35:09.359Z,71.49
2022-09-05T01:37:35.774Z,71.43
2022-09-05T01:40:14.756Z,71.56
2022-09-05T01:42:28.530Z,71.86
2022-09-05T01:44:54.932Z,71.90
2022-09-05T01:47:28.442Z,71.85
2022-09-05T01:49:47.835Z,71.83
2022-09-05T01:52:14.252Z,72.00
2022-09-05T01:54:40.612Z,71.98
2022-09-05T01:57:06.974Z,72.40
2022-09-05T01:59:33.359Z,72.41
2022-09-05T02:01:59.754Z,72.70
2022-09-05T02:04:26.084Z,72.76
2022-09-05T02:06:52.491Z,72.89
2022-09-05T02:09:18.854Z,72.80
2022-09-05T02:11:45.324Z,72.69
2022-09-05T02:14:11.738Z,72.67
2022-09-05T02:16:38.197Z,72.94
2022-09-05T02:19:04.546Z,72.67
2022-09-05T02:21:30.912Z,72.56
2022-09-05T02:23:57.385Z,72.92
2022-09-05T02:26:23.767Z,72.81
2022-09-05T02:28:50.156Z,72.09
2022-09-05T02:31:20.644Z,71.68
2022-09-05T02:33:42.936Z,71.89
2022-09-05T02:36:09.455Z,71.59
2022-09-05T02:43:30.329Z,71.46
2022-09-05T02:45:06.741Z,71.66
2022-09-05T02:45:08.928Z,71.66
2022-09-05T02:45:55.182Z,71.35
2022-09-05T02:48:21.510Z,71.05
2022-09-05T02:55:43.011Z,70.56
2022-09-05T02:57:35.753Z,70.66
2022-09-05T02:57:36.694Z,70.68
2022-09-05T02:58:08.962Z,70.67
2022-09-05T03:00:33.469Z,70.98
2022-09-05T03:02:59.883Z,70.85
2022-09-05T03:05:26.241Z,70.88
2022-09-05T03:07:52.614Z,70.99
2022-09-05T03:10:18.972Z,71.17
2022-09-05T03:12:45.375Z,70.97
2022-09-05T03:15:22.528Z,70.67
2022-09-05T03:17:38.105Z,70.73
2022-09-05T03:20:04.513Z,70.65
2022-09-05T03:22:36.238Z,70.85
2022-09-05T03:24:57.265Z,70.71
2022-09-05T03:27:23.773Z,71.13
2022-09-05T03:29:50.074Z,70.82
2022-09-05T03:32:16.486Z,71.19
2022-09-05T03:34:42.922Z,71.11
2022-09-05T03:37:09.352Z,70.97
2022-09-05T03:39:35.821Z,71.04
2022-09-05T03:42:02.222Z,71.45
2022-09-05T03:44:28.599Z,71.00
2022-09-05T03:46:54.956Z,71.02
2022-09-05T03:51:20.312Z,71.27
2022-09-05T03:57:11.854Z,71.24
2022-09-05T03:57:17.059Z,71.46
2022-09-05T03:57:24.926Z,71.67
2022-09-05T03:59:06.925Z,71.88
2022-09-05T04:03:02.556Z,72.02
2022-09-05T04:08:07.950Z,72.34
2022-09-05T04:08:20.594Z,72.35
2022-09-05T04:08:53.108Z,72.62
2022-09-05T04:11:18.908Z,72.65
2022-09-05T04:13:45.285Z,72.76
2022-09-05T04:16:11.663Z,72.85
2022-09-05T04:18:38.097Z,72.70
2022-09-05T04:21:04.480Z,72.61
2022-09-05T04:23:30.841Z,72.49
2022-09-05T04:26:05.118Z,72.62
2022-09-05T04:28:23.731Z,72.44
2022-09-05T04:30:50.110Z,72.68
2022-09-05T04:33:16.495Z,72.71
2022-09-05T04:35:42.894Z,73.03
2022-09-05T04:38:09.260Z,72.81
2022-09-05T04:40:35.643Z,72.84
2022-09-05T04:43:02.056Z,72.96
2022-09-05T04:45:28.435Z,72.88
2022-09-05T04:47:54.888Z,72.41
2022-09-05T04:50:23.707Z,72.17
2022-09-05T04:52:47.692Z,71.58
2022-09-05T04:55:14.070Z,72.42
2022-09-05T04:57:40.517Z,71.77
2022-09-05T05:05:36.440Z,71.36
2022-09-05T05:06:10.499Z,71.74
2022-09-05T05:06:12.051Z,72.32
2022-09-05T05:07:26.451Z,71.02
2022-09-05T05:10:10.491Z,70.08
2022-09-05T05:17:53.890Z,70.14
2022-09-05T05:18:07.955Z,69.93
2022-09-05T05:18:14.835Z,69.95
2022-09-05T05:19:38.239Z,69.56
2022-09-05T05:22:04.645Z,69.11
2022-09-05T05:24:31.015Z,68.96
2022-09-05T05:26:57.417Z,68.70
2022-09-05T05:29:23.842Z,68.56
2022-09-05T05:31:50.350Z,69.12
2022-09-05T05:34:24.678Z,69.61
2022-09-05T05:36:43.040Z,70.06
2022-09-05T05:39:09.395Z,69.31
2022-09-05T05:41:35.779Z,69.52
2022-09-05T05:44:02.234Z,69.28
2022-09-05T05:46:28.671Z,68.98
2022-09-05T05:48:57.302Z,68.68
2022-09-05T05:51:34.625Z,67.89
2022-09-05T05:53:51.670Z,67.28
2022-09-05T05:56:14.191Z,67.43
2022-09-05T05:58:40.542Z,67.06
2022-09-05T06:01:06.928Z,65.63
2022-09-05T06:03:33.442Z,65.20
2022-09-05T06:05:59.674Z,64.99
2022-09-05T06:13:14.623Z,65.30
2022-09-05T06:14:57.621Z,64.60
2022-09-05T06:15:02.952Z,64.63
2022-09-05T06:15:45.248Z,62.04
2022-09-05T06:18:11.637Z,58.50
2022-09-05T06:22:04.357Z,55.76
2022-09-05T06:23:04.481Z,56.06
2022-09-05T06:25:30.865Z,57.69
2022-09-05T06:28:17.867Z,60.17
2022-09-05T06:30:23.669Z,61.27
2022-09-05T06:32:58.416Z,61.11
2022-09-05T06:35:16.431Z,60.62
2022-09-05T06:37:42.811Z,60.54
2022-09-05T06:40:09.275Z,59.39
2022-09-05T06:42:42.643Z,58.83
2022-09-05T06:45:06.408Z,56.95
2022-09-05T06:47:34.081Z,57.03
2022-09-05T06:49:55.097Z,57.53
2022-09-05T06:52:29.384Z,57.59
2022-09-05T06:54:47.514Z,54.82
2022-09-05T06:57:13.900Z,53.24
2022-09-05T06:59:40.300Z,50.95
2022-09-05T07:02:06.836Z,52.40
2022-09-05T07:05:14.831Z,51.16
2022-09-05T07:07:02.203Z,48.23
2022-09-05T07:09:28.540Z,47.85
2022-09-05T07:11:52.314Z,45.25
2022-09-05T07:14:18.722Z,44.02
2022-09-05T07:16:45.194Z,44.40
2022-09-05T07:19:11.589Z,44.31
2022-09-05T07:21:37.971Z,45.78
2022-09-05T07:24:09.650Z,44.78
2022-09-05T07:26:51.310Z,42.31
2022-09-05T07:28:57.268Z,41.40
2022-09-05T07:31:27.422Z,41.27
2022-09-05T07:33:50.289Z,41.07
2022-09-05T07:36:16.796Z,41.85
2022-09-05T07:38:52.141Z,41.51
2022-09-05T07:41:09.589Z,40.87
2022-09-05T07:43:36.149Z,40.96
2022-09-05T07:46:03.558Z,44.08
2022-09-05T07:48:34.856Z,42.41
2022-09-05T07:56:19.231Z,41.23
2022-09-05T07:57:02.244Z,40.55
2022-09-05T07:57:04.794Z,39.16
2022-09-05T07:58:15.737Z,39.26
2022-09-05T08:00:42.125Z,39.31
2022-09-05T08:03:08.484Z,38.04
2022-09-05T08:05:35.945Z,37.83
2022-09-05T08:08:01.303Z,38.64
2022-09-05T08:10:31.462Z,38.71
2022-09-05T08:13:34.112Z,38.43
2022-09-05T08:15:20.506Z,37.76
2022-09-05T08:17:46.865Z,36.28
2022-09-05T08:20:13.228Z,36.13
2022-09-05T08:22:39.666Z,35.42
2022-09-05T08:25:06.042Z,35.86
2022-09-05T08:27:32.429Z,38.34
2022-09-05T08:30:22.673Z,38.59
2022-09-05T08:32:25.194Z,35.68
2022-09-05T08:34:51.561Z,35.39
2022-09-05T08:37:21.057Z,34.22
2022-09-05T08:39:44.486Z,33.60
2022-09-05T08:42:10.784Z,34.39
2022-09-05T08:46:39.460Z,35.12
2022-09-05T08:47:03.582Z,34.22
2022-09-05T08:49:37.893Z,34.03
2022-09-05T08:51:56.349Z,34.54
2022-09-05T08:54:22.765Z,34.72
2022-09-05T08:56:49.218Z,34.80
2022-09-05T08:59:27.791Z,35.02
2022-09-05T09:02:32.905Z,35.12
2022-09-05T09:04:11.365Z,34.38
2022-09-05T09:06:34.742Z,33.67
2022-09-05T09:09:05.278Z,34.05
2022-09-05T09:11:27.609Z,33.10
2022-09-05T09:13:54.041Z,33.10
2022-09-05T09:16:20.545Z,33.35
2022-09-05T09:18:46.862Z,32.48
2022-09-05T09:21:13.250Z,33.19
2022-09-05T09:23:39.689Z,33.15
2022-09-05T09:26:06.023Z,34.46
2022-09-05T09:28:47.596Z,34.64
2022-09-05T09:30:58.933Z,34.79
2022-09-05T09:33:27.236Z,35.16
2022-09-05T09:35:51.653Z,34.73
2022-09-05T09:38:18.039Z,35.19
2022-09-05T09:40:50.128Z,35.15
2022-09-05T09:43:10.902Z,33.73
2022-09-05T09:45:37.367Z,34.65
2022-09-05T09:48:03.775Z,32.52
2022-09-05T09:50:30.149Z,32.58
2022-09-05T09:52:56.533Z,33.22
2022-09-05T09:55:23.227Z,33.31
2022-09-05T09:57:49.624Z,34.15
2022-09-05T10:00:16.047Z,33.34
2022-09-05T10:04:31.238Z,32.36
2022-09-05T10:10:35.027Z,32.61
2022-09-05T10:10:45.167Z,31.28
2022-09-05T10:10:52.207Z,32.63
2022-09-05T10:14:54.321Z,32.71
2022-09-05T10:17:20.835Z,33.15
2022-09-05T10:24:39.957Z,31.15
2022-09-05T10:27:06.327Z,31.23
2022-09-05T10:29:37.381Z,32.76
2022-09-05T10:35:05.077Z,34.71
2022-09-05T10:35:17.610Z,36.11
2022-09-05T10:36:52.341Z,37.27
2022-09-05T10:39:18.218Z,36.63
2022-09-05T10:41:44.581Z,34.89
2022-09-05T10:44:10.973Z,35.32
2022-09-05T10:46:50.671Z,37.04
2022-09-05T10:49:03.705Z,36.15
2022-09-05T10:51:30.126Z,32.76
2022-09-05T10:53:56.510Z,34.99
2022-09-05T10:56:22.898Z,34.23
2022-09-05T11:02:24.273Z,31.69
2022-09-05T11:02:26.777Z,32.15
2022-09-05T11:03:42.169Z,31.63
2022-09-05T11:06:09.490Z,32.54
2022-09-05T11:08:34.990Z,32.87
2022-09-05T11:11:01.379Z,31.79
2022-09-05T11:13:27.778Z,31.49
2022-09-05T11:16:04.710Z,31.37
2022-09-05T11:18:20.499Z,33.51
2022-09-05T11:20:46.901Z,35.10
2022-09-05T11:23:13.356Z,35.43
2022-09-05T11:25:41.011Z,34.36
2022-09-05T11:28:06.125Z,34.61
2022-09-05T11:30:35.531Z,35.43
2022-09-05T11:39:50.564Z,36.93
2022-09-05T11:39:53.603Z,36.57
2022-09-05T11:40:09.968Z,35.10
2022-09-05T11:40:31.418Z,34.86
2022-09-05T11:42:44.516Z,33.74
2022-09-05T11:45:10.945Z,33.41
2022-09-05T11:47:44.110Z,34.12
2022-09-05T11:50:03.666Z,34.43
2022-09-05T11:52:30.148Z,34.24
2022-09-05T11:54:56.579Z,31.96
2022-09-05T11:57:32.213Z,33.09
2022-09-05T11:59:49.375Z,33.88
2022-09-05T12:02:16.831Z,32.97
2022-09-05T12:04:42.387Z,31.88
2022-09-05T12:07:26.346Z,32.78
2022-09-05T12:09:35.073Z,32.57
2022-09-05T12:12:01.468Z,32.70
2022-09-05T12:14:27.938Z,32.31
2022-09-05T12:16:54.369Z,31.62
2022-09-05T12:19:22.970Z,32.64
2022-09-05T12:21:47.170Z,32.28
2022-09-05T12:25:23.765Z,31.92
2022-09-05T12:27:40.300Z,31.78
2022-09-05T12:29:28.834Z,31.64
2022-09-05T12:33:22.949Z,31.35
2022-09-05T12:36:04.557Z,30.60
2022-09-05T12:40:56.522Z,31.09
2022-09-05T12:41:32.191Z,31.44
2022-09-05T12:41:44.996Z,31.42
2022-09-05T12:44:39.834Z,32.61
2022-09-05T12:46:19.279Z,32.67
2022-09-05T12:48:39.422Z,33.61
2022-09-05T12:51:04.534Z,34.14
2022-09-05T12:53:30.973Z,34.42
2022-09-05T12:56:12.129Z,34.84
2022-09-05T13:02:59.445Z,35.70
2022-09-05T13:03:07.997Z,36.02
2022-09-05T13:03:28.457Z,36.11
2022-09-05T13:05:42.968Z,36.24
2022-09-05T13:08:09.294Z,36.12
2022-09-05T13:14:44.714Z,36.77
2022-09-05T13:14:53.865Z,37.15
2022-09-05T13:15:29.149Z,37.00
2022-09-05T13:17:54.887Z,36.90
2022-09-05T13:20:21.247Z,36.81
2022-09-05T13:22:48.928Z,36.84
2022-09-05T13:25:14.014Z,37.24
2022-09-05T13:27:40.525Z,36.66
2022-09-05T13:37:26.496Z,37.08
2022-09-05T13:38:15.469Z,37.15
2022-09-05T13:38:15.619Z,37.80
2022-09-05T13:38:19.753Z,37.29
2022-09-05T13:39:52.626Z,37.60
2022-09-05T13:42:18.918Z,37.51
2022-09-05T13:44:45.341Z,37.91
2022-09-05T13:47:29.749Z,37.86
2022-09-05T13:49:38.159Z,37.32
2022-09-05T13:52:04.532Z,37.34
2022-09-05T13:54:30.916Z,38.16
2022-09-05T13:56:57.284Z,37.56
2022-09-05T13:59:23.648Z,38.20
2022-09-05T14:01:57.087Z,37.74
2022-09-05T14:05:05.178Z,38.28
2022-09-05T14:06:47.639Z,37.89
2022-09-05T14:11:35.573Z,38.14
2022-09-05T14:14:02.005Z,38.06
2022-09-05T14:16:28.366Z,37.96
2022-09-05T14:18:54.699Z,38.33
2022-09-05T14:21:21.067Z,38.60
2022-09-05T14:23:48.195Z,38.42
2022-09-05T14:26:14.965Z,38.15
2022-09-05T14:28:40.314Z,37.59
2022-09-05T14:35:59.104Z,38.03
2022-09-05T14:37:45.376Z,38.74
2022-09-05T14:37:52.315Z,38.55
2022-09-05T14:38:25.960Z,38.70
2022-09-05T14:40:52.180Z,38.67
2022-09-05T14:43:26.712Z,38.08
2022-09-05T14:45:46.098Z,38.22
2022-09-05T14:48:13.307Z,38.33
2022-09-05T14:50:37.912Z,38.10
2022-09-05T14:55:30.782Z,38.60
2022-09-05T15:02:40.919Z,39.12
2022-09-05T15:02:44.575Z,39.13
2022-09-05T15:03:02.536Z,39.65
2022-09-05T15:05:16.269Z,40.29
2022-09-05T15:07:42.650Z,40.24
2022-09-05T15:12:20.839Z,40.38
2022-09-05T15:12:45.929Z,40.48
2022-09-05T15:15:01.778Z,40.76
2022-09-05T15:17:28.162Z,40.76
2022-09-05T15:20:05.900Z,40.56
2022-09-05T15:22:20.950Z,40.84
2022-09-05T15:24:47.336Z,41.10
2022-09-05T15:27:13.713Z,41.15
2022-09-05T15:29:40.124Z,42.30
2022-09-05T15:32:09.372Z,43.09
2022-09-05T15:34:32.905Z,43.38
2022-09-05T15:37:09.120Z,43.22
2022-09-05T15:39:25.778Z,43.08
2022-09-05T15:41:52.190Z,43.41
2022-09-05T15:44:18.553Z,43.51
2022-09-05T15:46:44.942Z,43.71
2022-09-05T15:49:11.392Z,44.63
2022-09-05T15:51:38.105Z,44.04
2022-09-05T15:54:04.133Z,43.97
2022-09-05T15:56:30.496Z,43.66
2022-09-05T15:58:56.866Z,44.03
2022-09-05T16:01:58.048Z,44.46
2022-09-05T16:05:57.417Z,44.76
2022-09-05T16:10:30.709Z,45.08
2022-09-05T16:10:42.870Z,45.22
2022-09-05T16:11:38.295Z,45.52
2022-09-05T16:13:52.940Z,46.11
2022-09-05T16:21:35.636Z,46.52
2022-09-05T16:23:15.338Z,46.53
2022-09-05T16:23:23.411Z,46.91
2022-09-05T16:23:40.416Z,47.03
2022-09-05T16:25:47.283Z,47.02
2022-09-05T16:28:13.644Z,47.25
2022-09-05T16:30:40.038Z,48.01
2022-09-05T16:33:06.435Z,47.59
2022-09-05T16:35:32.815Z,48.26
2022-09-05T16:37:59.229Z,47.78
2022-09-05T16:40:25.659Z,48.54
2022-09-05T16:42:52.044Z,48.71
2022-09-05T16:45:18.536Z,48.87
2022-09-05T16:47:44.915Z,49.24
2022-09-05T16:50:16.954Z,49.38
2022-09-05T16:52:37.653Z,49.47
2022-09-05T16:55:04.158Z,49.96
2022-09-05T16:57:30.522Z,50.57
2022-09-05T16:59:57.141Z,51.34
2022-09-05T17:02:23.780Z,51.58
2022-09-05T17:05:04.428Z,51.11
2022-09-05T17:07:16.600Z,51.98
2022-09-05T17:09:42.981Z,52.26
2022-09-05T17:12:09.348Z,52.06
2022-09-05T17:14:35.958Z,51.98
2022-09-05T17:17:02.322Z,52.75
2022-09-05T17:19:31.136Z,52.49
2022-09-05T17:23:47.210Z,52.74
2022-09-05T17:29:19.010Z,53.16
2022-09-05T17:29:26.430Z,54.41
2022-09-05T17:29:30.538Z,54.54
2022-09-05T17:31:58.573Z,54.66
2022-09-05T17:34:07.049Z,54.95
2022-09-05T17:36:40.742Z,55.16
2022-09-05T17:38:59.882Z,55.72
2022-09-05T17:41:26.286Z,55.31
2022-09-05T17:43:52.662Z,55.04
2022-09-05T17:46:19.038Z,55.59
2022-09-05T17:48:45.397Z,55.63
2022-09-05T17:51:11.795Z,55.53
2022-09-05T17:53:38.175Z,55.46
2022-09-05T17:56:04.574Z,55.73
2022-09-05T17:58:49.018Z,55.31
2022-09-05T18:00:57.412Z,54.89
2022-09-05T18:03:23.708Z,55.14
2022-09-05T18:05:50.101Z,55.07
2022-09-05T18:08:16.711Z,55.24
2022-09-05T18:10:43.166Z,55.40
2022-09-05T18:13:14.101Z,55.99
2022-09-05T18:15:35.878Z,56.39
2022-09-05T18:18:02.367Z,56.43
2022-09-05T18:20:28.729Z,56.78
2022-09-05T18:23:18.031Z,56.95
2022-09-05T18:28:04.800Z,58.03
2022-09-05T18:30:14.339Z,58.25
2022-09-05T18:32:40.705Z,57.99
2022-09-05T18:35:08.651Z,58.29
2022-09-05T18:37:33.456Z,58.08
2022-09-05T18:39:59.872Z,58.32
2022-09-05T18:42:34.336Z,58.42
2022-09-05T18:44:54.471Z,58.31
2022-09-05T18:47:33.566Z,58.17
2022-09-05T18:50:26.955Z,58.22
2022-09-05T18:52:11.882Z,58.67
2022-09-05T18:54:38.253Z,58.65
2022-09-05T18:57:27.045Z,58.66
2022-09-05T18:59:31.027Z,59.03
2022-09-05T19:01:57.456Z,59.43
2022-09-05T19:04:39.017Z,59.35
2022-09-05T19:06:50.694Z,59.41
2022-09-05T19:09:17.338Z,59.83
2022-09-05T19:11:53.347Z,60.17
2022-09-05T19:14:25.971Z,60.27
2022-09-05T19:16:47.341Z,60.17
2022-09-05T19:19:03.688Z,60.44
2022-09-05T19:21:33.534Z,60.49
2022-09-05T19:23:56.876Z,60.66
2022-09-05T19:26:23.511Z,60.94
2022-09-05T19:36:46.517Z,60.91
2022-09-05T19:36:52.546Z,60.42
2022-09-05T19:36:58.096Z,60.81
2022-09-05T19:37:25.452Z,60.75
2022-09-05T19:40:07.742Z,60.67
2022-09-05T19:47:25.642Z,60.78
2022-09-05T19:47:36.818Z,61.11
2022-09-05T19:47:41.271Z,61.59
2022-09-05T19:50:51.536Z,62.21
2022-09-05T19:53:18.113Z,62.37
2022-09-05T19:55:44.635Z,62.45
2022-09-05T19:58:19.880Z,62.74
2022-09-05T20:00:37.769Z,63.07
2022-09-05T20:03:04.107Z,63.02
2022-09-05T20:05:30.692Z,63.21
2022-09-05T20:07:57.254Z,63.25
2022-09-05T20:10:23.807Z,63.08
2022-09-05T20:12:50.269Z,63.35
2022-09-05T20:15:16.628Z,63.21
2022-09-05T20:17:43.124Z,63.23
2022-09-05T20:20:09.496Z,63.51
2022-09-05T20:22:47.577Z,63.57
2022-09-05T20:25:02.577Z,64.60
2022-09-05T20:27:29.173Z,65.78
2022-09-05T20:29:56.046Z,65.78
2022-09-05T20:32:30.476Z,65.94
2022-09-05T20:36:40.179Z,66.75
2022-09-05T20:43:16.238Z,66.57
2022-09-05T20:43:19.534Z,66.86
2022-09-05T20:43:35.429Z,67.23
2022-09-05T20:44:34.445Z,67.12
2022-09-05T20:53:52.160Z,67.67
2022-09-05T20:54:17.612Z,67.69
2022-09-05T20:54:27.974Z,67.55
2022-09-05T20:54:41.357Z,67.31
2022-09-05T20:56:46.457Z,67.84
2022-09-05T20:59:12.838Z,68.06
2022-09-05T21:01:39.293Z,67.10
2022-09-05T21:04:05.662Z,67.11
2022-09-05T21:06:33.910Z,67.63
2022-09-05T21:08:58.374Z,68.06
2022-09-05T21:11:24.795Z,67.93
2022-09-05T21:13:52.232Z,67.79
2022-09-05T21:16:17.571Z,67.30
2022-09-05T21:18:43.970Z,66.97
2022-09-05T21:21:27.975Z,68.39
2022-09-05T21:23:36.697Z,69.51
2022-09-05T21:26:03.085Z,69.62
2022-09-05T21:28:36.442Z,69.52
2022-09-05T21:30:55.869Z,68.85
2022-09-05T21:33:24.205Z,68.52
2022-09-05T21:35:48.590Z,68.37
2022-09-05T21:38:14.999Z,68.84
2022-09-05T21:40:41.384Z,69.29
2022-09-05T21:45:35.343Z,69.89
2022-09-05T21:47:46.739Z,70.25
2022-09-05T21:48:01.045Z,70.59
2022-09-05T21:50:31.408Z,70.74
2022-09-05T21:53:23.775Z,70.35
2022-09-05T21:59:21.903Z,70.71
2022-09-05T21:59:33.301Z,71.27
2022-09-05T22:00:12.770Z,71.56
2022-09-05T22:02:39.317Z,71.91
2022-09-05T22:05:05.606Z,72.25
2022-09-05T22:07:33.234Z,72.41
2022-09-05T22:09:58.387Z,72.48
2022-09-05T22:12:30.834Z,72.43
2022-09-05T22:14:51.152Z,72.14
2022-09-05T22:17:17.543Z,72.09
2022-09-05T22:19:43.948Z,72.12
2022-09-05T22:22:10.385Z,72.43
2022-09-05T22:24:36.758Z,72.19
2022-09-05T22:27:12.715Z,72.36
2022-09-05T22:29:29.539Z,71.88
2022-09-05T22:31:55.900Z,71.32
2022-09-05T22:34:22.345Z,71.54
2022-09-05T22:36:48.744Z,71.63
2022-09-05T22:39:15.270Z,72.49
2022-09-05T22:41:41.579Z,72.53
2022-09-05T22:44:07.954Z,72.49
2022-09-05T22:46:34.382Z,72.81
2022-09-05T22:49:00.692Z,72.75
2022-09-05T22:51:27.087Z,72.65
2022-09-05T22:53:53.467Z,72.94
2022-09-05T22:56:19.833Z,72.99
2022-09-05T22:58:46.194Z,73.23
2022-09-05T23:01:12.631Z,73.48
2022-09-05T23:03:38.942Z,74.15
2022-09-05T23:06:05.366Z,73.67
2022-09-05T23:08:31.740Z,73.37
2022-09-05T23:10:58.100Z,73.36
2022-09-05T23:13:24.481Z,73.15
2022-09-05T23:15:50.967Z,73.11
2022-09-05T23:18:17.318Z,72.96
2022-09-05T23:20:43.750Z,72.85
2022-09-05T23:23:10.107Z,72.93
2022-09-05T23:25:36.635Z,72.95
2022-09-05T23:28:02.999Z,73.06
2022-09-05T23:30:29.483Z,73.25
2022-09-05T23:32:55.867Z,73.21
2022-09-05T23:35:22.239Z,73.38
2022-09-05T23:37:48.630Z,73.30
2022-09-05T23:40:15.114Z,73.56
2022-09-05T23:42:41.545Z,73.93
2022-09-05T23:45:07.948Z,73.94
2022-09-05T23:47:34.309Z,74.18
2022-09-05T23:50:00.742Z,74.49
2022-09-05T23:52:27.124Z,74.79
2022-09-05T23:54:53.508Z,74.84
2022-09-05T23:57:19.869Z,74.37
2022-09-05T23:59:46.274Z,74.34
